Time;durP1;ratioP1;P1;durP2;ratioP2;P2;SDS_P1;SDS_P2;PMS_P1;PMS_P2;Temp;Humidity;BMP_temperature;BMP_pressure;BME280_temperature;BME280_humidity;BME280_pressure;Samples;Min_cycle;Max_cycle;Signal;HPM_P1;HPM_P2
2022/01/27 07:59:15;;;;;;;38.80;24.08;;;;;;;4.66;93.47;102255.25;5382367;27;20348;-75
2022/01/27 08:01:47;;;;;;;33.92;24.02;;;;;;;4.68;94.53;102255.00;5364402;27;20099;-74
2022/01/27 08:04:18;;;;;;;42.75;25.95;;;;;;;4.69;95.40;102265.81;5365463;27;20088;-74
2022/01/27 08:06:49;;;;;;;38.42;24.67;;;;;;;4.73;96.17;102272.56;5364734;27;20025;-74
2022/01/27 08:09:20;;;;;;;42.83;24.58;;;;;;;4.67;96.06;102259.69;5364463;27;20031;-74
2022/01/27 08:11:52;;;;;;;38.97;26.00;;;;;;;4.68;97.20;102264.13;5364920;27;20035;-74
2022/01/27 08:14:23;;;;;;;38.55;25.23;;;;;;;4.71;97.62;102268.34;5350860;27;20026;-74
2022/01/27 08:16:54;;;;;;;38.10;26.02;;;;;;;4.68;98.52;102264.13;5362278;27;20075;-74
2022/01/27 08:19:25;;;;;;;42.00;27.02;;;;;;;4.69;98.92;102260.31;5355017;27;20031;-83
2022/01/27 08:21:57;;;;;;;45.22;26.33;;;;;;;4.69;98.92;102263.06;5343675;28;20027;-84
2022/01/27 08:24:28;;;;;;;40.58;25.40;;;;;;;4.70;99.56;102256.50;5347639;27;20474;-83
2022/01/27 08:27:05;;;;;;;43.70;28.20;;;;;;;4.70;99.73;102250.16;5359733;27;20080;-83
2022/01/27 08:29:41;;;;;;;39.20;25.90;;;;;;;4.78;100.00;102259.03;5372940;27;20019;-83
2022/01/27 08:32:17;;;;;;;44.47;26.85;;;;;;;4.77;100.00;102253.72;5370558;27;20465;-84
2022/01/27 08:34:49;;;;;;;39.90;25.92;;;;;;;4.76;100.00;102241.91;5367163;27;20028;-85
2022/01/27 08:37:21;;;;;;;40.80;27.35;;;;;;;4.82;100.00;102253.09;5366794;27;20035;-84
2022/01/27 08:39:52;;;;;;;37.80;26.00;;;;;;;4.84;100.00;102250.97;5368111;27;20019;-84
2022/01/27 08:42:24;;;;;;;43.95;26.05;;;;;;;4.83;100.00;102252.84;5365190;27;20050;-76
2022/01/27 08:44:55;;;;;;;37.38;24.90;;;;;;;4.84;100.00;102248.22;5363502;27;20019;-75
2022/01/27 08:47:27;;;;;;;39.03;25.83;;;;;;;4.80;100.00;102247.78;5364431;27;20038;-84
2022/01/27 08:49:58;;;;;;;40.38;25.08;;;;;;;4.87;100.00;102245.03;5364952;27;20034;-84
2022/01/27 08:52:29;;;;;;;39.80;25.70;;;;;;;4.87;100.00;102247.78;5365123;27;20029;-77
2022/01/27 08:55:02;;;;;;;41.30;26.45;;;;;;;4.91;100.00;102257.25;5364991;27;20409;-83
2022/01/27 08:57:34;;;;;;;42.95;26.95;;;;;;;4.91;100.00;102255.38;5363732;27;20046;-81
2022/01/27 09:00:12;;;;;;;46.97;27.90;;;;;;;5.02;100.00;102248.34;5364705;27;20061;-81
2022/01/27 09:02:43;;;;;;;37.47;25.10;;;;;;;4.97;100.00;102249.00;5367540;27;20113;-82
2022/01/27 09:05:14;;;;;;;38.17;25.67;;;;;;;5.01;100.00;102235.66;5365852;27;20102;-81
2022/01/27 09:07:45;;;;;;;36.22;24.90;;;;;;;5.09;100.00;102245.56;5365895;27;20498;-83
2022/01/27 09:10:17;;;;;;;41.28;26.63;;;;;;;5.12;100.00;102239.63;5352364;27;20027;-82
2022/01/27 09:12:48;;;;;;;40.50;26.55;;;;;;;5.12;100.00;102245.97;5345358;27;20080;-81
2022/01/27 09:15:19;;;;;;;42.92;25.77;;;;;;;5.12;100.00;102243.22;5351000;27;20128;-80
2022/01/27 09:17:51;;;;;;;40.80;26.40;;;;;;;5.11;100.00;102247.03;5351371;27;20035;-82
2022/01/27 09:20:22;;;;;;;41.10;27.02;;;;;;;5.17;100.00;102237.91;5351355;27;20042;-81
2022/01/27 09:22:57;;;;;;;40.92;26.70;;;;;;;5.20;100.00;102237.47;5356140;27;20042;-81
2022/01/27 09:25:40;;;;;;;42.40;28.67;;;;;;;5.22;100.00;102232.59;5359538;27;20019;-82
2022/01/27 09:28:12;;;;;;;42.80;27.27;;;;;;;5.20;100.00;102236.63;5354987;27;20102;-83
2022/01/27 09:30:44;;;;;;;39.45;29.30;;;;;;;5.27;100.00;102229.19;5341238;27;20157;-82
2022/01/27 09:33:15;;;;;;;39.17;26.55;;;;;;;5.30;100.00;102238.91;5326864;28;20095;-79
2022/01/27 09:35:46;;;;;;;38.85;26.52;;;;;;;5.35;100.00;102230.84;5344707;27;20027;-83
2022/01/27 09:38:18;;;;;;;41.53;27.02;;;;;;;5.36;100.00;102243.50;5349553;27;20486;-83
2022/01/27 09:40:51;;;;;;;35.58;25.77;;;;;;;5.36;100.00;102240.75;5350280;27;20034;-82
2022/01/27 09:43:22;;;;;;;36.92;25.15;;;;;;;5.33;100.00;102244.81;5349951;27;20027;-83
2022/01/27 09:45:55;;;;;;;34.72;25.27;;;;;;;5.35;100.00;102230.84;5348105;27;20019;-77
2022/01/27 09:48:35;;;;;;;31.33;24.60;;;;;;;5.34;100.00;102240.13;5348592;27;20030;-77
2022/01/27 09:51:26;;;;;;;37.13;26.23;;;;;;;5.34;100.00;102235.50;5329919;27;20069;-77
2022/01/27 09:53:57;;;;;;;32.22;25.08;;;;;;;5.35;100.00;102247.34;5340011;27;20064;-78
2022/01/27 09:56:28;;;;;;;38.42;25.17;;;;;;;5.38;100.00;102253.22;5346987;27;20035;-77
2022/01/27 09:59:01;;;;;;;32.30;23.98;;;;;;;5.36;100.00;102254.53;5347584;27;20075;-78
2022/01/27 10:01:32;;;;;;;31.58;23.23;;;;;;;5.40;100.00;102253.03;5347838;27;20023;-78
2022/01/27 10:04:06;;;;;;;31.15;23.90;;;;;;;5.41;100.00;102251.94;5348655;27;20026;-77
2022/01/27 10:06:38;;;;;;;34.60;25.73;;;;;;;5.41;100.00;102260.19;5347376;27;20019;-78
2022/01/27 10:09:12;;;;;;;33.13;25.40;;;;;;;5.45;100.00;102253.22;5348103;27;20034;-78
2022/01/27 10:11:49;;;;;;;30.23;23.60;;;;;;;5.51;100.00;102260.56;5348273;27;20046;-78
2022/01/27 10:14:26;;;;;;;29.02;23.52;;;;;;;5.49;100.00;102259.09;5348353;27;20042;-79
2022/01/27 10:17:00;;;;;;;30.40;23.08;;;;;;;5.50;100.00;102261.66;5340125;27;20054;-78
2022/01/27 10:19:35;;;;;;;30.30;22.85;;;;;;;5.52;100.00;102242.13;5340426;27;20031;-76
2022/01/27 10:22:13;;;;;;;27.08;22.23;;;;;;;5.56;100.00;102249.72;5347132;27;20029;-73
2022/01/27 10:24:44;;;;;;;32.80;22.40;;;;;;;5.56;100.00;102255.25;5350143;27;20106;-76
2022/01/27 10:27:24;;;;;;;28.33;23.17;;;;;;;5.62;100.00;102251.63;5348784;27;20542;-75
2022/01/27 10:32:50;;;;;;;28.67;22.50;;;;;;;5.68;100.00;102247.13;5349390;27;20118;-77
2022/01/27 10:35:27;;;;;;;28.98;21.75;;;;;;;5.67;100.00;102250.94;5348946;27;20027;-83
2022/01/27 10:38:07;;;;;;;25.13;21.45;;;;;;;5.69;100.00;102247.97;5349969;27;20035;-82
2022/01/27 10:40:48;;;;;;;28.73;24.52;;;;;;;5.77;100.00;102250.44;5343173;27;20023;-82
2022/01/27 10:43:23;;;;;;;26.52;22.90;;;;;;;5.83;100.00;102249.56;5347478;27;20126;-81
2022/01/27 10:46:00;;;;;;;24.63;21.00;;;;;;;5.80;100.00;102236.22;5347736;27;20026;-82
2022/01/27 10:48:34;;;;;;;24.85;21.85;;;;;;;5.79;100.00;102243.63;5348389;27;20460;-83
2022/01/27 10:51:18;;;;;;;23.55;21.02;;;;;;;5.77;100.00;102248.53;5347320;27;20030;-82
2022/01/27 10:54:04;;;;;;;23.38;20.63;;;;;;;5.80;100.00;102255.50;5348493;27;20020;-79
2022/01/27 10:56:37;;;;;;;;;;;;;;;5.87;100.00;102256.28;5347979;27;20031;-78
2022/01/27 10:59:15;;;;;;;27.55;21.88;;;;;;;5.92;100.00;102253.72;5347466;27;19915;-80
2022/01/27 11:01:49;;;;;;;26.08;22.67;;;;;;;5.92;100.00;102250.94;5356431;27;20076;-81
2022/01/27 11:04:35;;;;;;;23.23;20.42;;;;;;;5.94;100.00;102250.78;5341422;27;20022;-80
2022/01/27 11:07:11;;;;;;;25.23;20.48;;;;;;;6.05;100.00;102241.78;5349746;27;20497;-80
2022/01/27 11:09:44;;;;;;;28.00;21.50;;;;;;;6.04;100.00;102240.94;5346566;27;20023;-80
2022/01/27 11:12:18;;;;;;;24.42;21.33;;;;;;;6.05;100.00;102242.59;5348856;27;20016;-79
2022/01/27 11:14:50;;;;;;;27.73;21.95;;;;;;;6.02;100.00;102233.97;5347586;27;20027;-80
2022/01/27 11:17:24;;;;;;;29.20;21.15;;;;;;;6.04;100.00;102235.41;5347552;27;20062;-80
2022/01/27 11:20:17;;;;;;;45.72;40.80;;;;;;;6.11;100.00;102235.38;5348503;27;20507;-81
2022/01/27 11:28:11;;;;;;;27.13;21.45;;;;;;;6.19;100.00;102226.81;5336030;27;20043;-81
2022/01/27 11:30:42;;;;;;;26.73;21.77;;;;;;;6.18;100.00;102219.59;5347073;27;20029;-83
2022/01/27 11:33:15;;;;;;;26.30;22.63;;;;;;;6.20;100.00;102209.19;5346997;27;20026;-82
2022/01/27 11:35:46;;;;;;;30.85;22.00;;;;;;;6.23;100.00;102203.22;5346195;27;20290;-81
2022/01/27 11:38:24;;;;;;;29.15;22.70;;;;;;;6.29;100.00;102212.53;5345429;27;20470;-83
2022/01/27 11:40:55;;;;;;;27.67;20.65;;;;;;;6.31;100.00;102207.59;5347912;27;20494;-81
2022/01/27 11:43:34;;;;;;;40.65;31.88;;;;;;;6.33;100.00;102197.19;5347410;27;20103;-82
2022/01/27 11:46:18;;;;;;;27.35;21.77;;;;;;;6.36;100.00;102199.50;5333380;27;20065;-81
2022/01/27 11:48:49;;;;;;;27.33;23.50;;;;;;;6.41;100.00;102196.91;5331091;27;20421;-79
2022/01/27 11:51:21;;;;;;;29.95;23.33;;;;;;;6.39;100.00;102193.56;5335772;28;20025;-83
2022/01/27 11:53:52;;;;;;;28.58;21.88;;;;;;;6.45;100.00;102197.31;5346369;27;20448;-80
2022/01/27 11:56:23;;;;;;;31.05;22.83;;;;;;;6.48;100.00;102191.31;5346994;28;20415;-81
2022/01/27 11:58:57;;;;;;;29.42;23.45;;;;;;;6.49;100.00;102201.25;5345476;28;20067;-79
2022/01/27 12:01:31;;;;;;;27.58;22.30;;;;;;;6.52;100.00;102196.16;5346683;28;20064;-79
2022/01/27 12:04:02;;;;;;;28.42;23.40;;;;;;;6.56;100.00;102203.97;5346551;28;20507;-78
2022/01/27 12:06:38;;;;;;;28.05;20.95;;;;;;;6.53;100.00;102194.22;5346955;28;20027;-80
2022/01/27 12:09:19;;;;;;;26.27;22.05;;;;;;;6.60;100.00;102192.25;5350807;27;20102;-78
2022/01/27 12:12:04;;;;;;;26.38;21.83;;;;;;;6.65;100.00;102188.81;5352845;28;20102;-81
2022/01/27 12:14:40;;;;;;;30.67;24.08;;;;;;;6.64;100.00;102196.22;5348898;28;20474;-78
2022/01/27 12:17:15;;;;;;;28.98;20.23;;;;;;;6.65;100.00;102192.41;5346537;28;20034;-77
2022/01/27 12:19:59;;;;;;;25.65;19.40;;;;;;;6.67;100.00;102192.16;5344833;28;20031;-77
2022/01/27 12:22:42;;;;;;;27.15;20.95;;;;;;;6.65;100.00;102192.41;5334379;28;20036;-79
2022/01/27 12:25:14;;;;;;;28.27;19.92;;;;;;;6.64;100.00;102181.59;5325813;28;20039;-81
2022/01/27 12:27:58;;;;;;;25.67;18.40;;;;;;;6.72;100.00;102175.75;5345752;28;20023;-83
2022/01/27 12:30:29;;;;;;;32.50;20.25;;;;;;;6.72;100.00;102181.28;5351333;28;20030;-83
2022/01/27 12:33:00;;;;;;;26.00;18.80;;;;;;;6.78;100.00;102174.84;5351222;28;20035;-83
2022/01/27 12:35:32;;;;;;;24.70;19.30;;;;;;;6.79;100.00;102182.03;5342688;28;20032;-83
2022/01/27 12:38:03;;;;;;;28.67;19.25;;;;;;;6.84;100.00;102182.19;5338241;28;20105;-83
2022/01/27 12:40:35;;;;;;;39.63;31.45;;;;;;;6.85;100.00;102174.75;5347722;28;20035;-81
2022/01/27 12:43:11;;;;;;;20.27;16.77;;;;;;;6.89;100.00;102173.22;5345130;27;20023;-79
2022/01/27 12:45:44;;;;;;;22.95;15.43;;;;;;;6.92;100.00;102170.81;5349104;27;20501;-79
2022/01/27 12:48:21;;;;;;;25.70;14.82;;;;;;;6.95;100.00;102161.22;5348380;27;20374;-79
2022/01/27 12:50:59;;;;;;;17.88;13.93;;;;;;;6.97;100.00;102157.16;5350036;27;20058;-79
2022/01/27 12:53:31;;;;;;;19.63;14.40;;;;;;;6.97;100.00;102165.44;5343478;27;20027;-80
2022/01/27 12:56:08;;;;;;;17.70;13.18;;;;;;;6.97;100.00;102157.16;5342158;27;20031;-80
2022/01/27 12:58:40;;;;;;;18.75;14.20;;;;;;;6.99;100.00;102147.84;5349363;27;20047;-81
2022/01/27 13:01:12;;;;;;;20.20;13.65;;;;;;;7.02;100.00;102152.88;5349314;27;20079;-79
2022/01/27 13:04:00;;;;;;;21.10;12.63;;;;;;;7.05;100.00;102158.75;5347465;27;20020;-77
2022/01/27 13:06:31;;;;;;;21.20;13.80;;;;;;;7.04;100.00;102156.25;5343843;27;20035;-78
2022/01/27 13:09:12;;;;;;;18.25;12.65;;;;;;;7.11;100.00;102157.84;5347535;27;20094;-79
2022/01/27 13:11:45;;;;;;;20.23;13.20;;;;;;;7.10;100.00;102150.63;5346337;27;20026;-79
2022/01/27 13:14:17;;;;;;;18.17;12.35;;;;;;;7.14;100.00;102151.84;5348768;27;20027;-79
2022/01/27 13:17:00;;;;;;;24.40;12.82;;;;;;;7.16;100.00;102148.88;5348593;27;20038;-83
2022/01/27 13:19:38;;;;;;;19.48;12.52;;;;;;;7.18;100.00;102152.22;5349594;27;20031;-83
2022/01/27 13:22:15;;;;;;;15.68;11.75;;;;;;;7.20;100.00;102152.81;5349485;27;20034;-82
2022/01/27 13:24:50;;;;;;;21.10;13.70;;;;;;;7.23;100.00;102157.84;5348217;27;20051;-82
2022/01/27 13:27:22;;;;;;;22.67;11.82;;;;;;;7.23;100.00;102149.59;5349429;27;20023;-79
2022/01/27 13:29:58;;;;;;;20.42;12.50;;;;;;;7.28;100.00;102157.16;5349597;27;20019;-79
2022/01/27 13:32:30;;;;;;;18.58;10.88;;;;;;;7.30;100.00;102149.50;5347951;27;20051;-80
2022/01/27 13:35:02;;;;;;;18.45;10.75;;;;;;;7.30;100.00;102155.84;5347795;27;20054;-78
2022/01/27 13:37:35;;;;;;;18.02;12.20;;;;;;;7.31;100.00;102160.31;5347811;27;20084;-78
2022/01/27 13:42:58;;;;;;;16.92;10.43;;;;;;;7.37;100.00;102167.63;5351804;27;20051;-82
2022/01/27 13:45:34;;;;;;;15.48;10.02;;;;;;;7.42;100.00;102157.81;5360374;27;20458;-82
2022/01/27 13:48:22;;;;;;;17.98;10.52;;;;;;;7.44;100.00;102162.03;5358828;27;20470;-80
2022/01/27 13:51:00;;;;;;;16.15;10.23;;;;;;;7.47;100.00;102155.19;5350306;27;20466;-77
2022/01/27 13:53:31;;;;;;;16.67;10.50;;;;;;;7.51;100.00;102143.41;5355512;27;20034;-80
2022/01/27 13:56:07;;;;;;;16.75;10.55;;;;;;;7.52;100.00;102152.56;5353210;27;20027;-79
2022/01/27 13:58:38;;;;;;;;;;;;;;;7.55;100.00;102157.59;5355471;27;20482;-78
2022/01/27 14:01:13;;;;;;;17.73;11.40;;;;;;;7.54;100.00;102150.38;5344547;27;19930;-79
2022/01/27 14:03:46;;;;;;;18.15;10.10;;;;;;;7.58;100.00;102151.59;5349069;27;20284;-79
2022/01/27 14:06:18;;;;;;;17.52;10.88;;;;;;;7.60;100.00;102149.44;5351770;27;20416;-82
2022/01/27 14:08:56;;;;;;;16.58;9.38;;;;;;;7.61;100.00;102162.16;5351009;27;20035;-80
2022/01/27 14:11:52;;;;;;;16.92;8.40;;;;;;;7.61;100.00;102173.19;5351358;27;20130;-83
2022/01/27 14:14:49;;;;;;;19.55;9.38;;;;;;;7.63;100.00;102171.88;5349112;27;20043;-81
2022/01/27 14:17:29;;;;;;;24.55;10.55;;;;;;;7.60;100.00;102174.28;5347568;27;20362;-82
2022/01/27 14:20:00;;;;;;;21.80;9.23;;;;;;;7.63;100.00;102176.56;5349930;27;20160;-83
2022/01/27 14:22:32;;;;;;;15.85;8.80;;;;;;;7.65;100.00;102168.06;5349622;27;20106;-82
2022/01/27 14:25:08;;;;;;;43.25;24.20;;;;;;;7.67;100.00;102183.31;5348636;27;20019;-80
2022/01/27 14:27:44;;;;;;;19.63;10.82;;;;;;;7.66;100.00;102186.28;5347852;27;20400;-82
2022/01/27 14:30:17;;;;;;;14.18;8.40;;;;;;;7.67;100.00;102197.13;5350250;27;20493;-79
2022/01/27 14:32:48;;;;;;;13.52;8.43;;;;;;;7.73;100.00;102201.69;5326538;28;20049;-78
2022/01/27 14:35:20;;;;;;;16.38;11.80;;;;;;;7.72;100.00;102205.53;5341001;27;20101;-83
2022/01/27 14:37:57;;;;;;;22.88;15.55;;;;;;;7.75;100.00;102202.28;5346380;27;20023;-77
2022/01/27 14:40:28;;;;;;;42.83;30.02;;;;;;;7.81;100.00;102201.31;5345303;27;20051;-81
2022/01/27 14:43:02;;;;;;;25.95;14.77;;;;;;;7.81;100.00;102194.97;5347112;27;20015;-81
2022/01/27 14:45:33;;;;;;;33.97;20.30;;;;;;;7.82;100.00;102196.63;5346877;27;20031;-82
2022/01/27 14:48:05;;;;;;;17.65;9.38;;;;;;;7.83;100.00;102207.47;5346474;27;20023;-81
2022/01/27 14:50:38;;;;;;;17.98;12.90;;;;;;;7.88;100.00;102203.16;5346400;27;20161;-81
2022/01/27 14:53:09;;;;;;;15.82;9.98;;;;;;;7.87;100.00;102201.44;5347399;27;20038;-82
2022/01/27 14:55:43;;;;;;;19.08;8.95;;;;;;;7.89;100.00;102208.41;5346629;27;20023;-78
2022/01/27 14:58:14;;;;;;;13.80;8.02;;;;;;;7.89;100.00;102200.13;5334450;27;20474;-79
2022/01/27 15:00:45;;;;;;;17.92;9.75;;;;;;;7.94;100.00;102202.19;5346449;27;20030;-79
2022/01/27 15:03:16;;;;;;;10.95;7.55;;;;;;;7.93;100.00;102201.34;5346296;27;20026;-83
2022/01/27 15:05:48;;;;;;;16.13;8.68;;;;;;;7.95;100.00;102203.84;5347821;27;20050;-82
2022/01/27 15:08:19;;;;;;;17.63;8.32;;;;;;;7.95;100.00;102206.63;5342770;27;20378;-81
2022/01/27 15:10:51;;;;;;;14.45;8.20;;;;;;;7.93;100.00;102203.28;5341555;27;20047;-77
2022/01/27 15:13:23;;;;;;;14.10;8.13;;;;;;;7.95;100.00;102213.00;5345650;27;20438;-76
2022/01/27 15:18:49;;;;;;;10.98;7.22;;;;;;;7.96;100.00;102222.13;5294405;27;20118;-77
2022/01/27 15:21:21;;;;;;;21.88;13.10;;;;;;;7.95;100.00;102223.19;5345687;27;20121;-77
2022/01/27 15:23:52;;;;;;;16.60;11.43;;;;;;;7.95;100.00;102229.59;5345323;27;20027;-78
2022/01/27 15:26:23;;;;;;;11.45;7.50;;;;;;;7.95;100.00;102224.06;5346289;27;20071;-82
2022/01/27 15:28:55;;;;;;;15.23;8.63;;;;;;;7.95;100.00;102218.53;5346669;27;20114;-73
2022/01/27 15:31:26;;;;;;;14.77;8.23;;;;;;;7.97;99.99;102234.84;5345221;27;20019;-77
2022/01/27 15:33:57;;;;;;;21.25;14.27;;;;;;;7.99;99.44;102235.47;5345382;27;20027;-82
2022/01/27 15:36:33;;;;;;;16.25;9.40;;;;;;;8.01;99.73;102238.81;5347158;27;20135;-79
2022/01/27 15:39:04;;;;;;;15.32;9.80;;;;;;;7.97;99.41;102235.69;5345349;27;20027;-80
2022/01/27 15:41:35;;;;;;;12.15;8.30;;;;;;;7.97;98.91;102249.50;5346968;27;20074;-79
2022/01/27 15:44:07;;;;;;;16.58;8.20;;;;;;;7.96;98.09;102247.00;5344875;27;20026;-79
2022/01/27 15:46:38;;;;;;;15.88;8.07;;;;;;;7.95;97.92;102246.16;5346843;27;20035;-79
2022/01/27 15:49:10;;;;;;;23.25;16.10;;;;;;;7.96;97.61;102235.94;5347088;27;20042;-82
2022/01/27 15:51:41;;;;;;;13.98;9.70;;;;;;;7.96;97.61;102233.19;5347535;27;20027;-81
2022/01/27 15:54:12;;;;;;;13.00;8.02;;;;;;;7.96;97.59;102247.00;5354832;27;20367;-81
2022/01/27 15:56:44;;;;;;;13.60;7.57;;;;;;;7.95;97.30;102259.97;5351873;27;20077;-82
2022/01/27 15:59:15;;;;;;;14.45;8.35;;;;;;;7.95;97.28;102267.38;5344707;27;20030;-77
2022/01/27 16:01:49;;;;;;;11.43;7.45;;;;;;;7.94;97.47;102257.44;5346425;28;20031;-82
2022/01/27 16:04:21;;;;;;;12.50;7.20;;;;;;;7.99;97.71;102263.09;5345826;28;20462;-82
2022/01/27 16:06:53;;;;;;;23.63;14.93;;;;;;;8.01;97.92;102259.00;5345168;28;20028;-73
2022/01/27 16:09:24;;;;;;;15.30;8.23;;;;;;;7.94;98.21;102265.72;5345894;28;20024;-72
2022/01/27 16:11:55;;;;;;;15.98;8.05;;;;;;;7.92;97.71;102267.88;5344695;27;20054;-74
2022/01/27 16:14:26;;;;;;;20.42;8.73;;;;;;;7.96;98.26;102269.09;5345057;28;20184;-73
2022/01/27 16:16:58;;;;;;;39.22;29.75;;;;;;;7.92;99.01;102278.91;5338891;28;20042;-74
2022/01/27 16:19:32;;;;;;;16.42;10.20;;;;;;;7.87;99.06;102287.06;5345012;27;20393;-74
2022/01/27 16:22:03;;;;;;;17.52;10.43;;;;;;;7.84;99.42;102294.75;5348163;27;20015;-74
2022/01/27 16:24:34;;;;;;;15.20;10.57;;;;;;;7.81;98.47;102291.63;5339656;27;20533;-74
2022/01/27 16:27:06;;;;;;;14.88;8.50;;;;;;;7.82;98.37;102290.53;5348884;27;20032;-75
2022/01/27 16:29:38;;;;;;;16.42;11.00;;;;;;;7.82;98.57;102301.59;5348764;27;20459;-75
2022/01/27 16:32:13;;;;;;;22.17;16.10;;;;;;;7.82;97.80;102294.16;5341546;27;20482;-74
2022/01/27 16:34:44;;;;;;;18.35;10.43;;;;;;;7.81;97.32;102310.97;5348175;27;20059;-75
2022/01/27 16:37:20;;;;;;;14.95;8.75;;;;;;;7.80;97.01;102310.13;5348948;27;20470;-74
2022/01/27 16:39:51;;;;;;;11.80;8.02;;;;;;;7.78;96.65;102309.53;5335463;27;20035;-75
2022/01/27 16:42:23;;;;;;;14.57;7.32;;;;;;;7.78;96.68;102309.53;5344027;27;20035;-75
2022/01/27 16:44:55;;;;;;;23.30;14.18;;;;;;;7.77;95.91;102323.53;5349021;27;20031;-75
2022/01/27 16:47:26;;;;;;;14.45;9.05;;;;;;;7.79;95.28;102316.72;5348676;27;20030;-74
2022/01/27 16:49:58;;;;;;;15.48;9.07;;;;;;;7.77;93.99;102321.66;5345255;27;20118;-76
2022/01/27 16:52:29;;;;;;;11.13;5.65;;;;;;;7.76;94.21;102322.72;5349923;27;20023;-75
2022/01/27 16:55:01;;;;;;;11.23;5.07;;;;;;;7.74;92.30;102326.78;5348464;27;20523;-75
2022/01/27 16:57:32;;;;;;;15.75;6.05;;;;;;;7.70;92.65;102320.91;5348731;27;20447;-75
2022/01/27 17:00:07;;;;;;;8.68;5.40;;;;;;;7.67;92.76;102332.44;5349572;27;20027;-73
2022/01/27 17:02:38;;;;;;;11.20;6.05;;;;;;;7.62;91.59;102332.28;5348455;27;20031;-74
2022/01/27 17:05:10;;;;;;;22.85;14.52;;;;;;;7.62;91.97;102343.31;5349367;27;20543;-78
2022/01/27 17:07:41;;;;;;;12.10;4.80;;;;;;;7.61;92.92;102347.97;5350015;27;20031;-77
2022/01/27 17:10:15;;;;;;;9.25;5.15;;;;;;;7.59;92.85;102344.63;5348405;27;20107;-77
2022/01/27 17:12:46;;;;;;;8.32;5.07;;;;;;;7.59;93.14;102352.91;5348780;27;20102;-78
2022/01/27 17:15:17;;;;;;;13.75;7.85;;;;;;;7.57;92.72;102348.72;5347595;27;20130;-78
2022/01/27 17:17:49;;;;;;;11.63;5.47;;;;;;;7.56;92.09;102356.13;5348273;27;20355;-79
2022/01/27 17:20:20;;;;;;;10.00;5.30;;;;;;;7.55;92.69;102362.72;5348147;27;20031;-79
2022/01/27 17:22:51;;;;;;;10.07;4.90;;;;;;;7.53;92.54;102370.41;5348890;27;20022;-79
2022/01/27 17:25:24;;;;;;;8.65;5.10;;;;;;;7.55;92.45;102371.00;5349324;27;20031;-79
2022/01/27 17:27:55;;;;;;;11.13;5.05;;;;;;;7.54;92.40;102372.09;5348016;27;20102;-79
2022/01/27 17:30:27;;;;;;;10.25;5.57;;;;;;;7.55;91.89;102375.69;5337999;27;20095;-79
